Time;durP1;ratioP1;P1;durP2;ratioP2;P2;SDS_P1;SDS_P2;PMS_P1;PMS_P2;Temp;Humidity;BMP_temperature;BMP_pressure;BME280_temperature;BME280_humidity;BME280_pressure;Samples;Min_cycle;Max_cycle;Signal;HPM_P1;HPM_P2
2023/06/22 00:01:28;;;;;;;;;;;;;;;;;;5006947;28;20304;-64
2023/06/22 00:03:53;;;;;;;;;;;;;;;;;;5021247;28;19920;-64
2023/06/22 00:06:19;;;;;;;;;;;;;;;;;;5010688;28;19913;-64
2023/06/22 00:08:45;;;;;;;;;;;;;;;;;;5011282;28;20297;-64
2023/06/22 00:11:11;;;;;;;;;;;;;;;;;;5014949;28;19961;-65
2023/06/22 00:13:37;;;;;;;;;;;;;;;;;;5013250;28;19920;-64
2023/06/22 00:16:03;;;;;;;;;;;;;;;;;;5025150;28;19965;-64
2023/06/22 00:18:31;;;;;;;;;;;;;;;;;;5010488;28;19913;-64
2023/06/22 00:20:58;;;;;;;;;;;;;;;;;;5011016;28;19913;-64
2023/06/22 00:23:23;;;;;;;;;;;;;;;;;;5022452;28;20388;-64
2023/06/22 00:25:49;;;;;;;;;;;;;;;;;;5011750;28;19914;-64
2023/06/22 00:28:15;;;;;;;;;;;;;;;;;;5011103;28;19918;-65
2023/06/22 00:30:41;;;;;;;;;;;;;;;;;;5019645;28;19965;-64
2023/06/22 00:33:07;;;;;;;;;;;;;;;;;;5020915;28;19964;-64
2023/06/22 00:35:33;;;;;;;;;;;;;;;;;;5013351;28;20002;-64
2023/06/22 00:38:00;;;;;;;;;;;;;;;;;;5010147;28;19953;-64
2023/06/22 00:40:26;;;;;;;;;;;;;;;;;;5004823;28;20370;-64
2023/06/22 00:42:52;;;;;;;;;;;;;;;;;;5011175;28;19924;-64
2023/06/22 00:45:18;;;;;;;;;;;;;;;;;;5010487;28;19956;-64
2023/06/22 00:47:44;;;;;;;;;;;;;;;;;;4996497;28;19918;-64
2023/06/22 00:50:10;;;;;;;;;;;;;;;;;;5011044;28;19956;-64
2023/06/22 00:52:36;;;;;;;;;;;;;;;;;;5016855;28;20389;-64
2023/06/22 00:55:02;;;;;;;;;;;;;;;;;;5007721;28;19964;-64
2023/06/22 00:57:28;;;;;;;;;;;;;;;;;;5010134;28;20285;-64
2023/06/22 00:59:53;;;;;;;;;;;;;;;;;;5011323;28;19914;-64
2023/06/22 01:02:19;;;;;;;;;;;;;;;;;;5019985;28;19913;-64
2023/06/22 01:04:45;;;;;;;;;;;;;;;;;;5009651;28;19960;-64
2023/06/22 01:07:13;;;;;;;;;;;;;;;;;;5031808;28;20007;-64
2023/06/22 01:09:38;;;;;;;;;;;;;;;;;;4994841;28;19917;-64
2023/06/22 01:12:04;;;;;;;;;;;;;;;;;;5008440;28;19960;-64
2023/06/22 01:14:30;;;;;;;;;;;;;;;;;;5011993;28;20008;-64
2023/06/22 01:16:56;;;;;;;;;;;;;;;;;;5011293;28;19921;-64
2023/06/22 01:19:22;;;;;;;;;;;;;;;;;;5014836;28;20377;-64
2023/06/22 01:21:48;;;;;;;;;;;;;;;;;;5022879;28;20407;-64
2023/06/22 01:24:14;;;;;;;;;;;;;;;;;;5032836;28;19913;-64
2023/06/22 01:26:40;;;;;;;;;;;;;;;;;;5021614;28;20332;-64
2023/06/22 01:29:07;;;;;;;;;;;;;;;;;;5016250;28;19924;-64
2023/06/22 01:31:34;;;;;;;;;;;;;;;;;;5012247;28;19975;-64
2023/06/22 01:34:00;;;;;;;;;;;;;;;;;;5015528;28;19914;-64
2023/06/22 01:36:26;;;;;;;;;;;;;;;;;;5015463;28;20028;-64
2023/06/22 01:38:52;;;;;;;;;;;;;;;;;;5015073;28;19924;-64
2023/06/22 01:41:18;;;;;;;;;;;;;;;;;;5010758;28;19918;-64
2023/06/22 01:43:44;;;;;;;;;;;;;;;;;;5014459;28;20396;-64
2023/06/22 01:46:10;;;;;;;;;;;;;;;;;;5021790;28;19913;-64
2023/06/22 01:48:35;;;;;;;;;;;;;;;;;;5034268;28;20292;-64
2023/06/22 01:51:01;;;;;;;;;;;;;;;;;;5014520;28;19960;-64
2023/06/22 01:53:27;;;;;;;;;;;;;;;;;;5014182;28;19952;-64
2023/06/22 01:55:53;;;;;;;;;;;;;;;;;;5014549;28;19965;-64
2023/06/22 01:58:19;;;;;;;;;;;;;;;;;;5010756;28;20000;-63
2023/06/22 02:00:45;;;;;;;;;;;;;;;;;;5017040;28;20004;-64
2023/06/22 02:03:11;;;;;;;;;;;;;;;;;;5015213;28;19913;-64
2023/06/22 02:05:37;;;;;;;;;;;;;;;;;;5021570;28;19961;-63
2023/06/22 02:08:03;;;;;;;;;;;;;;;;;;5015019;28;19961;-64
2023/06/22 02:10:29;;;;;;;;;;;;;;;;;;5011886;28;19918;-64
2023/06/22 02:12:55;;;;;;;;;;;;;;;;;;5015655;28;19955;-64
2023/06/22 02:15:21;;;;;;;;;;;;;;;;;;5006919;28;19963;-64
2023/06/22 02:17:46;;;;;;;;;;;;;;;;;;5015336;28;19994;-64
2023/06/22 02:20:13;;;;;;;;;;;;;;;;;;5012172;28;19959;-64
2023/06/22 02:22:39;;;;;;;;;;;;;;;;;;5014188;28;19921;-64
2023/06/22 02:25:04;;;;;;;;;;;;;;;;;;5014364;28;20018;-64
2023/06/22 02:27:30;;;;;;;;;;;;;;;;;;5014499;28;19918;-64
2023/06/22 02:29:56;;;;;;;;;;;;;;;;;;5012842;28;19933;-64
2023/06/22 02:32:22;;;;;;;;;;;;;;;;;;4993636;28;20377;-64
2023/06/22 02:34:48;;;;;;;;;;;;;;;;;;5014505;28;20362;-64
2023/06/22 02:37:14;;;;;;;;;;;;;;;;;;5008840;28;19928;-64
2023/06/22 02:39:40;;;;;;;;;;;;;;;;;;5014264;28;19970;-64
2023/06/22 02:42:06;;;;;;;;;;;;;;;;;;5014529;28;19969;-64
2023/06/22 02:44:32;;;;;;;;;;;;;;;;;;5014821;28;20059;-64
2023/06/22 02:46:58;;;;;;;;;;;;;;;;;;5014707;28;20436;-64
2023/06/22 02:49:24;;;;;;;;;;;;;;;;;;5014076;28;19920;-64
2023/06/22 02:51:50;;;;;;;;;;;;;;;;;;5011374;28;20293;-64
2023/06/22 02:54:16;;;;;;;;;;;;;;;;;;5021131;28;19917;-64
2023/06/22 02:56:43;;;;;;;;;;;;;;;;;;5029183;28;20254;-64
2023/06/22 02:59:10;;;;;;;;;;;;;;;;;;5014948;28;19921;-64
2023/06/22 03:01:42;;;;;;;;;;;;;;;;;;5013468;28;19913;-64
2023/06/22 03:04:08;;;;;;;;;;;;;;;;;;5007225;28;19925;-64
2023/06/22 03:06:34;;;;;;;;;;;;;;;;;;5015746;28;19917;-64
2023/06/22 03:09:00;;;;;;;;;;;;;;;;;;5010611;28;20008;-64
2023/06/22 03:11:26;;;;;;;;;;;;;;;;;;5010475;28;19913;-64
2023/06/22 03:13:52;;;;;;;;;;;;;;;;;;5011395;28;19956;-64
2023/06/22 03:16:18;;;;;;;;;;;;;;;;;;5012452;28;19927;-64
2023/06/22 03:18:44;;;;;;;;;;;;;;;;;;5028244;28;19918;-64
2023/06/22 03:21:10;;;;;;;;;;;;;;;;;;5012095;28;20268;-64
2023/06/22 03:23:36;;;;;;;;;;;;;;;;;;5005179;28;19956;-64
2023/06/22 03:26:02;;;;;;;;;;;;;;;;;;5006015;28;19935;-64
2023/06/22 03:28:28;;;;;;;;;;;;;;;;;;5012986;28;19924;-64
2023/06/22 03:30:54;;;;;;;;;;;;;;;;;;5014212;28;20304;-64
2023/06/22 03:33:20;;;;;;;;;;;;;;;;;;5012792;28;19940;-64
2023/06/22 03:35:46;;;;;;;;;;;;;;;;;;5010120;28;20313;-64
2023/06/22 03:38:12;;;;;;;;;;;;;;;;;;5014379;28;19921;-64
2023/06/22 03:40:38;;;;;;;;;;;;;;;;;;5021026;28;19914;-64
2023/06/22 03:43:04;;;;;;;;;;;;;;;;;;4995621;28;20342;-64
2023/06/22 03:45:29;;;;;;;;;;;;;;;;;;5011583;28;19922;-64
2023/06/22 03:47:55;;;;;;;;;;;;;;;;;;5025794;28;19957;-64
2023/06/22 03:50:21;;;;;;;;;;;;;;;;;;4993776;28;19919;-67
2023/06/22 03:52:48;;;;;;;;;;;;;;;;;;5011060;28;19917;-66
2023/06/22 03:55:14;;;;;;;;;;;;;;;;;;5008255;28;20352;-67
2023/06/22 03:57:40;;;;;;;;;;;;;;;;;;5002183;28;19953;-67
2023/06/22 04:00:06;;;;;;;;;;;;;;;;;;5015669;28;19917;-67
2023/06/22 04:02:31;;;;;;;;;;;;;;;;;;4999795;28;19924;-67
2023/06/22 04:04:57;;;;;;;;;;;;;;;;;;4991949;28;19960;-67
2023/06/22 04:07:23;;;;;;;;;;;;;;;;;;5005184;28;20415;-67
2023/06/22 04:09:49;;;;;;;;;;;;;;;;;;5007242;28;19913;-67
2023/06/22 04:12:15;;;;;;;;;;;;;;;;;;5009024;28;19913;-67
2023/06/22 04:14:41;;;;;;;;;;;;;;;;;;5006183;28;19972;-67
2023/06/22 04:17:07;;;;;;;;;;;;;;;;;;5006358;28;20377;-67
2023/06/22 04:19:33;;;;;;;;;;;;;;;;;;5013677;28;19981;-67
2023/06/22 04:21:59;;;;;;;;;;;;;;;;;;4996027;28;21281;-67
2023/06/22 04:24:25;;;;;;;;;;;;;;;;;;5014241;28;19913;-68
2023/06/22 04:26:54;;;;;;;;;;;;;;;;;;5016879;28;20002;-68
2023/06/22 04:29:20;;;;;;;;;;;;;;;;;;5008963;28;20016;-67
2023/06/22 04:31:50;;;;;;;;;;;;;;;;;;5009957;28;20341;-68
2023/06/22 04:34:16;;;;;;;;;;;;;;;;;;5010796;28;19917;-68
2023/06/22 04:36:42;;;;;;;;;;;;;;;;;;5027683;28;19945;-68
2023/06/22 04:39:09;;;;;;;;;;;;;;;;;;5014746;28;20361;-68
2023/06/22 04:41:41;;;;;;;;;;;;;;;;;;5008365;28;19920;-68
2023/06/22 04:44:07;;;;;;;;;;;;;;;;;;5018222;28;19913;-68
2023/06/22 04:46:37;;;;;;;;;;;;;;;;;;5009194;28;20377;-69
2023/06/22 04:49:06;;;;;;;;;;;;;;;;;;5019895;28;19979;-69
2023/06/22 04:51:32;;;;;;;;;;;;;;;;;;5009390;28;19914;-70
2023/06/22 04:54:00;;;;;;;;;;;;;;;;;;5008814;28;19919;-68
2023/06/22 04:56:28;;;;;;;;;;;;;;;;;;5023177;28;19920;-69
2023/06/22 04:58:56;;;;;;;;;;;;;;;;;;5014722;28;20008;-68
2023/06/22 05:01:22;;;;;;;;;;;;;;;;;;5007807;28;19997;-68
2023/06/22 05:03:48;;;;;;;;;;;;;;;;;;5022521;28;19948;-68
2023/06/22 05:06:14;;;;;;;;;;;;;;;;;;5007301;28;20396;-68
2023/06/22 05:08:40;;;;;;;;;;;;;;;;;;5009317;28;19917;-68
2023/06/22 05:11:06;;;;;;;;;;;;;;;;;;5002960;28;20647;-69
2023/06/22 05:13:32;;;;;;;;;;;;;;;;;;5016295;28;20000;-68
2023/06/22 05:16:01;;;;;;;;;;;;;;;;;;5008886;28;20017;-68
2023/06/22 05:18:27;;;;;;;;;;;;;;;;;;5007140;28;19924;-68
2023/06/22 05:20:53;;;;;;;;;;;;;;;;;;5006695;28;19952;-69
2023/06/22 05:23:19;;;;;;;;;;;;;;;;;;5009486;28;20249;-68
2023/06/22 05:25:45;;;;;;;;;;;;;;;;;;5009544;28;19913;-69
2023/06/22 05:28:12;;;;;;;;;;;;;;;;;;5017610;28;19923;-68
2023/06/22 05:30:38;;;;;;;;;;;;;;;;;;5021249;28;20369;-69
2023/06/22 05:33:04;;;;;;;;;;;;;;;;;;5013522;28;20005;-70
2023/06/22 05:35:29;;;;;;;;;;;;;;;;;;5007726;28;19917;-67
2023/06/22 05:37:55;;;;;;;;;;;;;;;;;;5008342;28;19976;-68
2023/06/22 05:40:21;;;;;;;;;;;;;;;;;;5001740;28;19914;-68
2023/06/22 05:42:47;;;;;;;;;;;;;;;;;;5014028;28;19917;-68
2023/06/22 05:45:13;;;;;;;;;;;;;;;;;;5007913;28;20400;-68
2023/06/22 05:47:39;;;;;;;;;;;;;;;;;;5010452;28;19960;-67
2023/06/22 05:50:08;;;;;;;;;;;;;;;;;;5007812;28;19914;-67
2023/06/22 05:52:34;;;;;;;;;;;;;;;;;;5011645;28;20381;-68
2023/06/22 05:55:00;;;;;;;;;;;;;;;;;;5011231;28;19910;-67
2023/06/22 05:57:26;;;;;;;;;;;;;;;;;;5018961;28;20426;-68
2023/06/22 05:59:53;;;;;;;;;;;;;;;;;;5013492;28;19949;-68
2023/06/22 06:02:19;;;;;;;;;;;;;;;;;;5012868;28;19917;-68
2023/06/22 06:04:45;;;;;;;;;;;;;;;;;;5019972;28;19957;-68
2023/06/22 06:07:11;;;;;;;;;;;;;;;;;;5032113;28;19914;-67
2023/06/22 06:09:37;;;;;;;;;;;;;;;;;;5024390;28;19970;-68
2023/06/22 06:12:03;;;;;;;;;;;;;;;;;;5025287;28;20354;-68
2023/06/22 06:14:29;;;;;;;;;;;;;;;;;;5020134;28;19972;-67
2023/06/22 06:16:55;;;;;;;;;;;;;;;;;;5034872;28;19975;-63
2023/06/22 06:19:20;;;;;;;;;;;;;;;;;;5018343;28;20017;-63
2023/06/22 06:21:46;;;;;;;;;;;;;;;;;;5014402;28;19917;-63
2023/06/22 06:24:13;;;;;;;;;;;;;;;;;;5011895;28;19952;-63
2023/06/22 06:26:39;;;;;;;;;;;;;;;;;;5011444;28;19960;-63
2023/06/22 06:29:05;;;;;;;;;;;;;;;;;;5013267;28;19957;-63
2023/06/22 06:31:31;;;;;;;;;;;;;;;;;;5008508;28;19952;-63
2023/06/22 06:33:57;;;;;;;;;;;;;;;;;;5010933;28;19957;-63
2023/06/22 06:36:23;;;;;;;;;;;;;;;;;;5008889;28;19927;-63
2023/06/22 06:38:49;;;;;;;;;;;;;;;;;;5007487;28;20012;-63
2023/06/22 06:41:14;;;;;;;;;;;;;;;;;;5012961;28;19956;-63
2023/06/22 06:43:42;;;;;;;;;;;;;;;;;;5011495;28;19960;-63
2023/06/22 06:46:08;;;;;;;;;;;;;;;;;;5013255;28;19914;-64
2023/06/22 06:48:34;;;;;;;;;;;;;;;;;;5014249;28;19964;-63
2023/06/22 06:51:00;;;;;;;;;;;;;;;;;;5025974;28;20016;-63
2023/06/22 06:53:26;;;;;;;;;;;;;;;;;;4999570;28;19913;-63
2023/06/22 06:55:52;;;;;;;;;;;;;;;;;;5029572;28;20017;-63
2023/06/22 06:58:18;;;;;;;;;;;;;;;;;;5018130;28;20348;-64
2023/06/22 07:00:44;;;;;;;;;;;;;;;;;;5026410;28;20008;-63
2023/06/22 07:03:10;;;;;;;;;;;;;;;;;;5026310;28;19914;-64
2023/06/22 07:05:36;;;;;;;;;;;;;;;;;;5033315;28;19963;-64
2023/06/22 07:08:02;;;;;;;;;;;;;;;;;;5026068;28;19944;-64
2023/06/22 07:10:28;;;;;;;;;;;;;;;;;;5012133;28;20360;-63
2023/06/22 07:12:54;;;;;;;;;;;;;;;;;;5012700;28;19916;-64
2023/06/22 07:15:19;;;;;;;;;;;;;;;;;;5013953;28;20031;-63
2023/06/22 07:17:45;;;;;;;;;;;;;;;;;;5013503;28;19921;-64
2023/06/22 07:20:12;;;;;;;;;;;;;;;;;;5011237;28;19956;-64
2023/06/22 07:22:37;;;;;;;;;;;;;;;;;;5013852;28;19920;-63
2023/06/22 07:25:09;;;;;;;;;;;;;;;;;;5010171;28;19917;-64
2023/06/22 07:27:35;;;;;;;;;;;;;;;;;;4995511;28;19996;-64
2023/06/22 07:30:01;;;;;;;;;;;;;;;;;;5013250;28;20295;-64
2023/06/22 07:32:28;;;;;;;;;;;;;;;;;;5012164;28;19967;-63
2023/06/22 07:34:54;;;;;;;;;;;;;;;;;;5009690;28;19953;-64
2023/06/22 07:37:20;;;;;;;;;;;;;;;;;;4995602;28;20317;-63
2023/06/22 07:39:46;;;;;;;;;;;;;;;;;;5011700;28;19992;-64
2023/06/22 07:42:12;;;;;;;;;;;;;;;;;;5013111;28;20052;-63
2023/06/22 07:44:38;;;;;;;;;;;;;;;;;;5013353;28;19909;-64
2023/06/22 07:47:03;;;;;;;;;;;;;;;;;;5012557;28;19917;-64
2023/06/22 07:49:29;;;;;;;;;;;;;;;;;;5012645;28;20358;-64
2023/06/22 07:51:55;;;;;;;;;;;;;;;;;;5010981;28;20008;-64
2023/06/22 07:54:21;;;;;;;;;;;;;;;;;;5012946;28;19909;-64
2023/06/22 07:56:47;;;;;;;;;;;;;;;;;;5028419;28;19905;-63
2023/06/22 07:59:13;;;;;;;;;;;;;;;;;;5012225;28;19952;-63
2023/06/22 08:01:39;;;;;;;;;;;;;;;;;;5021456;28;19913;-63
2023/06/22 08:04:05;;;;;;;;;;;;;;;;;;5046032;28;20377;-63
2023/06/22 08:06:31;;;;;;;;;;;;;;;;;;5010268;28;20293;-63
2023/06/22 08:08:58;;;;;;;;;;;;;;;;;;5010720;28;19967;-63
2023/06/22 08:11:25;;;;;;;;;;;;;;;;;;5012249;28;19909;-63
2023/06/22 08:13:51;;;;;;;;;;;;;;;;;;5011207;28;19959;-64
2023/06/22 08:16:17;;;;;;;;;;;;;;;;;;4993303;28;19921;-64
2023/06/22 08:18:43;;;;;;;;;;;;;;;;;;5013174;28;19952;-63
2023/06/22 08:21:09;;;;;;;;;;;;;;;;;;5008233;28;19918;-64
2023/06/22 08:23:35;;;;;;;;;;;;;;;;;;4994759;28;20693;-63
2023/06/22 08:26:01;;;;;;;;;;;;;;;;;;4993450;28;19921;-63
2023/06/22 08:28:27;;;;;;;;;;;;;;;;;;5011664;28;20358;-64
2023/06/22 08:30:53;;;;;;;;;;;;;;;;;;5012188;28;19967;-64
2023/06/22 08:33:19;;;;;;;;;;;;;;;;;;5012471;28;20004;-63
2023/06/22 08:35:45;;;;;;;;;;;;;;;;;;5014061;28;20391;-63
2023/06/22 08:38:13;;;;;;;;;;;;;;;;;;5012316;28;19971;-63
2023/06/22 08:40:39;;;;;;;;;;;;;;;;;;5017524;28;19909;-63
2023/06/22 08:43:05;;;;;;;;;;;;;;;;;;4995858;28;19913;-64
2023/06/22 08:45:31;;;;;;;;;;;;;;;;;;5024025;28;20273;-64
2023/06/22 08:47:57;;;;;;;;;;;;;;;;;;5010520;28;19967;-63
2023/06/22 08:50:23;;;;;;;;;;;;;;;;;;5009431;28;19956;-65
2023/06/22 08:52:49;;;;;;;;;;;;;;;;;;5009944;28;19924;-61
2023/06/22 08:55:15;;;;;;;;;;;;;;;;;;5010786;28;19909;-64
2023/06/22 08:57:41;;;;;;;;;;;;;;;;;;5011036;28;20283;-63
2023/06/22 09:00:11;;;;;;;;;;;;;;;;;;5010223;28;20039;-64
2023/06/22 09:02:38;;;;;;;;;;;;;;;;;;5008878;28;19936;-63
2023/06/22 09:05:04;;;;;;;;;;;;;;;;;;5012885;28;19987;-63
2023/06/22 09:07:30;;;;;;;;;;;;;;;;;;5019609;28;19910;-63
2023/06/22 09:09:56;;;;;;;;;;;;;;;;;;5029758;28;20297;-63
2023/06/22 09:12:25;;;;;;;;;;;;;;;;;;5030763;28;20011;-63
2023/06/22 09:14:51;;;;;;;;;;;;;;;;;;5019404;28;19913;-63
2023/06/22 09:17:17;;;;;;;;;;;;;;;;;;5029785;28;19956;-63
2023/06/22 09:19:43;;;;;;;;;;;;;;;;;;5007250;28;19991;-63
2023/06/22 09:22:09;;;;;;;;;;;;;;;;;;5018350;28;19909;-63
2023/06/22 09:24:35;;;;;;;;;;;;;;;;;;5009328;28;19920;-64
2023/06/22 09:27:01;;;;;;;;;;;;;;;;;;5012260;28;19936;-63
2023/06/22 09:29:27;;;;;;;;;;;;;;;;;;5010565;28;20413;-63
2023/06/22 09:31:55;;;;;;;;;;;;;;;;;;5012996;28;19920;-63
2023/06/22 09:34:21;;;;;;;;;;;;;;;;;;5010398;28;19917;-64
2023/06/22 09:36:47;;;;;;;;;;;;;;;;;;5006774;28;19959;-63
2023/06/22 09:39:13;;;;;;;;;;;;;;;;;;5013975;28;19910;-63
2023/06/22 09:41:39;;;;;;;;;;;;;;;;;;5015350;28;19914;-63
2023/06/22 09:44:05;;;;;;;;;;;;;;;;;;5018240;28;19951;-63
2023/06/22 09:46:31;;;;;;;;;;;;;;;;;;5014540;28;19970;-64
2023/06/22 09:48:57;;;;;;;;;;;;;;;;;;5015195;28;19964;-64
2023/06/22 09:51:23;;;;;;;;;;;;;;;;;;5013542;28;20407;-63
2023/06/22 09:53:49;;;;;;;;;;;;;;;;;;5012150;28;19921;-63
2023/06/22 09:56:15;;;;;;;;;;;;;;;;;;5012360;28;20376;-64
2023/06/22 09:58:41;;;;;;;;;;;;;;;;;;5014710;28;19960;-63
2023/06/22 10:01:07;;;;;;;;;;;;;;;;;;5014497;28;19910;-63
2023/06/22 10:03:33;;;;;;;;;;;;;;;;;;5022523;28;19917;-64
2023/06/22 10:05:59;;;;;;;;;;;;;;;;;;5034277;28;20000;-63
2023/06/22 10:08:25;;;;;;;;;;;;;;;;;;5017897;28;19917;-64
2023/06/22 10:10:51;;;;;;;;;;;;;;;;;;5013285;28;19914;-65
2023/06/22 10:13:18;;;;;;;;;;;;;;;;;;5012000;28;20063;-64
2023/06/22 10:15:49;;;;;;;;;;;;;;;;;;5012911;28;19922;-64
2023/06/22 10:18:15;;;;;;;;;;;;;;;;;;5014410;28;20396;-64
2023/06/22 10:20:41;;;;;;;;;;;;;;;;;;5009308;28;19933;-63
2023/06/22 10:23:07;;;;;;;;;;;;;;;;;;5014273;28;19913;-64
2023/06/22 10:25:32;;;;;;;;;;;;;;;;;;5013873;28;19913;-62
2023/06/22 10:27:58;;;;;;;;;;;;;;;;;;4996052;28;20003;-62
2023/06/22 10:30:24;;;;;;;;;;;;;;;;;;5012924;28;20401;-62
2023/06/22 10:32:50;;;;;;;;;;;;;;;;;;5012541;28;19909;-64
2023/06/22 10:35:16;;;;;;;;;;;;;;;;;;5013639;28;19913;-63
2023/06/22 10:37:43;;;;;;;;;;;;;;;;;;5013990;28;19958;-64
2023/06/22 10:40:08;;;;;;;;;;;;;;;;;;5012135;28;19914;-64
2023/06/22 10:42:34;;;;;;;;;;;;;;;;;;5007591;28;19948;-64
2023/06/22 10:45:00;;;;;;;;;;;;;;;;;;5012499;28;19948;-64
2023/06/22 10:47:26;;;;;;;;;;;;;;;;;;5014158;28;19948;-64
2023/06/22 10:49:52;;;;;;;;;;;;;;;;;;5021755;28;20600;-64
2023/06/22 10:52:18;;;;;;;;;;;;;;;;;;5008408;28;19914;-63
2023/06/22 10:54:44;;;;;;;;;;;;;;;;;;5008046;28;19922;-63
2023/06/22 10:57:10;;;;;;;;;;;;;;;;;;5009891;28;20381;-63
2023/06/22 10:59:36;;;;;;;;;;;;;;;;;;5029320;28;19909;-63
2023/06/22 11:02:02;;;;;;;;;;;;;;;;;;5020761;28;19954;-64
2023/06/22 11:04:28;;;;;;;;;;;;;;;;;;5029653;28;20392;-63
2023/06/22 11:06:54;;;;;;;;;;;;;;;;;;5014250;28;20032;-63
2023/06/22 11:09:22;;;;;;;;;;;;;;;;;;5012238;28;19921;-62
2023/06/22 11:11:48;;;;;;;;;;;;;;;;;;5014644;28;19945;-62
2023/06/22 11:14:14;;;;;;;;;;;;;;;;;;5020740;28;19925;-62
2023/06/22 11:16:40;;;;;;;;;;;;;;;;;;5023010;28;20298;-63
2023/06/22 11:19:06;;;;;;;;;;;;;;;;;;5004052;28;19948;-62
2023/06/22 11:21:32;;;;;;;;;;;;;;;;;;5021133;28;19939;-62
2023/06/22 11:23:58;;;;;;;;;;;;;;;;;;5009851;28;19937;-63
2023/06/22 11:26:25;;;;;;;;;;;;;;;;;;5014838;28;19963;-63
2023/06/22 11:28:50;;;;;;;;;;;;;;;;;;5013804;28;19944;-63
2023/06/22 11:31:16;;;;;;;;;;;;;;;;;;5013197;28;20385;-62
2023/06/22 11:33:44;;;;;;;;;;;;;;;;;;5013523;28;19913;-62
2023/06/22 11:36:11;;;;;;;;;;;;;;;;;;5011797;28;19917;-63
2023/06/22 11:38:38;;;;;;;;;;;;;;;;;;5012811;28;19970;-63
2023/06/22 11:41:04;;;;;;;;;;;;;;;;;;5004484;28;19925;-63
2023/06/22 11:43:30;;;;;;;;;;;;;;;;;;5013386;28;19956;-63
2023/06/22 11:45:57;;;;;;;;;;;;;;;;;;5012711;28;19997;-63
2023/06/22 11:48:23;;;;;;;;;;;;;;;;;;5013167;28;19918;-63
2023/06/22 11:50:49;;;;;;;;;;;;;;;;;;5014483;28;19917;-63
2023/06/22 11:53:17;;;;;;;;;;;;;;;;;;5011318;28;19945;-63
2023/06/22 11:55:43;;;;;;;;;;;;;;;;;;5011688;28;20434;-63
2023/06/22 11:58:09;;;;;;;;;;;;;;;;;;5012923;28;19945;-64
2023/06/22 12:00:34;;;;;;;;;;;;;;;;;;5017046;28;19913;-63
2023/06/22 12:03:00;;;;;;;;;;;;;;;;;;5015389;28;19958;-64
2023/06/22 12:05:26;;;;;;;;;;;;;;;;;;5022665;28;20007;-63
2023/06/22 12:07:52;;;;;;;;;;;;;;;;;;5019986;28;21799;-63
2023/06/22 12:10:18;;;;;;;;;;;;;;;;;;5014449;28;19955;-63
2023/06/22 12:12:44;;;;;;;;;;;;;;;;;;5015731;28;19971;-63
2023/06/22 12:15:10;;;;;;;;;;;;;;;;;;5016658;28;20230;-63
2023/06/22 12:17:36;;;;;;;;;;;;;;;;;;5021685;28;19939;-64
2023/06/22 12:20:05;;;;;;;;;;;;;;;;;;5029315;28;19913;-63
2023/06/22 12:22:31;;;;;;;;;;;;;;;;;;5010236;28;20427;-63
2023/06/22 12:24:57;;;;;;;;;;;;;;;;;;5011496;28;19913;-63
2023/06/22 12:27:22;;;;;;;;;;;;;;;;;;5029697;28;19909;-63
2023/06/22 12:29:48;;;;;;;;;;;;;;;;;;5020724;28;19923;-63
2023/06/22 12:32:14;;;;;;;;;;;;;;;;;;5027090;28;19952;-63
2023/06/22 12:34:40;;;;;;;;;;;;;;;;;;5028062;28;19955;-64
2023/06/22 12:37:06;;;;;;;;;;;;;;;;;;5012957;28;19956;-63
2023/06/22 12:39:32;;;;;;;;;;;;;;;;;;5029051;28;19996;-63
2023/06/22 12:41:58;;;;;;;;;;;;;;;;;;5029193;28;19917;-68
2023/06/22 12:44:24;;;;;;;;;;;;;;;;;;5019151;28;20314;-63
2023/06/22 12:46:50;;;;;;;;;;;;;;;;;;5012257;28;19913;-63
2023/06/22 12:49:16;;;;;;;;;;;;;;;;;;5019779;28;20433;-63
2023/06/22 12:51:44;;;;;;;;;;;;;;;;;;5011335;28;19913;-64
2023/06/22 12:54:10;;;;;;;;;;;;;;;;;;5027204;28;19919;-63
2023/06/22 12:56:36;;;;;;;;;;;;;;;;;;5013568;28;19913;-63
2023/06/22 12:59:02;;;;;;;;;;;;;;;;;;5012076;28;20119;-63
2023/06/22 13:01:28;;;;;;;;;;;;;;;;;;5023326;28;19914;-63
2023/06/22 13:03:54;;;;;;;;;;;;;;;;;;5013866;28;19999;-63
2023/06/22 13:06:20;;;;;;;;;;;;;;;;;;5011105;28;20064;-64
2023/06/22 13:08:46;;;;;;;;;;;;;;;;;;5011612;28;20377;-64
2023/06/22 13:11:12;;;;;;;;;;;;;;;;;;5009201;28;19967;-63
2023/06/22 13:13:37;;;;;;;;;;;;;;;;;;5008858;28;19913;-64
2023/06/22 13:16:03;;;;;;;;;;;;;;;;;;5004953;28;20419;-62
2023/06/22 13:18:29;;;;;;;;;;;;;;;;;;5010202;28;20047;-62
2023/06/22 13:20:55;;;;;;;;;;;;;;;;;;5009297;28;19963;-63
2023/06/22 13:23:21;;;;;;;;;;;;;;;;;;5011210;28;19917;-63
2023/06/22 13:25:47;;;;;;;;;;;;;;;;;;5010281;28;19998;-64
2023/06/22 13:28:15;;;;;;;;;;;;;;;;;;5011645;28;20359;-64
2023/06/22 13:30:41;;;;;;;;;;;;;;;;;;5011033;28;20266;-64
2023/06/22 13:33:08;;;;;;;;;;;;;;;;;;5011575;28;19919;-62
2023/06/22 13:35:35;;;;;;;;;;;;;;;;;;5012079;28;20016;-62
2023/06/22 13:38:00;;;;;;;;;;;;;;;;;;5018649;28;19917;-63
2023/06/22 13:40:26;;;;;;;;;;;;;;;;;;5021781;28;19944;-61
2023/06/22 13:42:52;;;;;;;;;;;;;;;;;;5010619;28;19913;-62
2023/06/22 13:45:19;;;;;;;;;;;;;;;;;;5010960;28;19918;-63
2023/06/22 13:47:45;;;;;;;;;;;;;;;;;;5011573;28;19924;-63
2023/06/22 13:50:12;;;;;;;;;;;;;;;;;;5011152;28;19952;-62
2023/06/22 13:52:38;;;;;;;;;;;;;;;;;;5007848;28;20342;-62
2023/06/22 13:55:04;;;;;;;;;;;;;;;;;;5011671;28;19913;-62
2023/06/22 13:57:30;;;;;;;;;;;;;;;;;;5011254;28;19921;-61
2023/06/22 13:59:56;;;;;;;;;;;;;;;;;;5010928;28;19957;-62
2023/06/22 14:02:22;;;;;;;;;;;;;;;;;;5011296;28;20622;-62
2023/06/22 14:04:48;;;;;;;;;;;;;;;;;;5023197;28;20013;-62
2023/06/22 14:07:14;;;;;;;;;;;;;;;;;;5009909;28;21729;-61
2023/06/22 14:09:40;;;;;;;;;;;;;;;;;;5008778;28;19951;-61
2023/06/22 14:12:06;;;;;;;;;;;;;;;;;;5003798;28;19913;-61
2023/06/22 14:14:32;;;;;;;;;;;;;;;;;;5007905;28;20365;-61
2023/06/22 14:16:58;;;;;;;;;;;;;;;;;;5007167;28;19948;-63
2023/06/22 14:19:24;;;;;;;;;;;;;;;;;;4999961;28;20390;-62
2023/06/22 14:21:50;;;;;;;;;;;;;;;;;;5003943;28;19914;-62
2023/06/22 14:24:16;;;;;;;;;;;;;;;;;;5008637;28;19952;-62
2023/06/22 14:26:42;;;;;;;;;;;;;;;;;;5014401;28;20861;-62
2023/06/22 14:29:08;;;;;;;;;;;;;;;;;;5016520;28;19917;-62
2023/06/22 14:31:34;;;;;;;;;;;;;;;;;;5026944;28;19956;-63
2023/06/22 14:34:00;;;;;;;;;;;;;;;;;;5010818;28;20379;-62
2023/06/22 14:36:26;;;;;;;;;;;;;;;;;;5011942;28;20364;-63
2023/06/22 14:38:52;;;;;;;;;;;;;;;;;;5015195;28;19992;-62
2023/06/22 14:41:18;;;;;;;;;;;;;;;;;;5013853;28;19963;-63
2023/06/22 14:43:44;;;;;;;;;;;;;;;;;;5014053;28;20365;-62
2023/06/22 14:46:10;;;;;;;;;;;;;;;;;;5014460;28;20345;-62
2023/06/22 14:48:36;;;;;;;;;;;;;;;;;;5004852;28;19957;-61
2023/06/22 14:51:02;;;;;;;;;;;;;;;;;;5001428;28;19920;-62
2023/06/22 14:53:28;;;;;;;;;;;;;;;;;;5006824;28;20382;-61
2023/06/22 14:55:54;;;;;;;;;;;;;;;;;;5000239;28;20571;-62
2023/06/22 14:58:20;;;;;;;;;;;;;;;;;;4999691;28;19913;-62
2023/06/22 15:00:46;;;;;;;;;;;;;;;;;;5012072;28;19964;-62
2023/06/22 15:03:17;;;;;;;;;;;;;;;;;;5014502;28;19996;-62
2023/06/22 15:05:43;;;;;;;;;;;;;;;;;;5017419;28;19924;-62
2023/06/22 15:08:09;;;;;;;;;;;;;;;;;;5014567;28;19925;-62
2023/06/22 15:10:35;;;;;;;;;;;;;;;;;;5023584;28;19960;-62
2023/06/22 15:13:01;;;;;;;;;;;;;;;;;;5008632;28;19976;-62
2023/06/22 15:15:27;;;;;;;;;;;;;;;;;;5010961;28;19953;-63
2023/06/22 15:17:54;;;;;;;;;;;;;;;;;;5018317;28;21558;-62
2023/06/22 15:20:20;;;;;;;;;;;;;;;;;;5024488;28;20404;-62
2023/06/22 15:22:46;;;;;;;;;;;;;;;;;;5012796;28;19918;-62
2023/06/22 15:25:12;;;;;;;;;;;;;;;;;;4998493;28;20320;-62
2023/06/22 15:27:38;;;;;;;;;;;;;;;;;;5026784;28;19956;-63
2023/06/22 15:30:04;;;;;;;;;;;;;;;;;;4993706;28;19921;-62
2023/06/22 15:32:30;;;;;;;;;;;;;;;;;;5011570;28;20032;-62
2023/06/22 15:34:56;;;;;;;;;;;;;;;;;;5009632;28;19975;-62
2023/06/22 15:37:22;;;;;;;;;;;;;;;;;;5013398;28;20011;-61
2023/06/22 15:39:48;;;;;;;;;;;;;;;;;;5017001;28;20000;-62
2023/06/22 15:42:14;;;;;;;;;;;;;;;;;;5019208;28;19935;-62
2023/06/22 15:44:39;;;;;;;;;;;;;;;;;;5005544;28;19953;-61
2023/06/22 15:47:05;;;;;;;;;;;;;;;;;;5010024;28;19952;-61
2023/06/22 15:49:31;;;;;;;;;;;;;;;;;;5014763;28;20354;-62
2023/06/22 15:51:57;;;;;;;;;;;;;;;;;;5011150;28;19918;-62
2023/06/22 15:54:23;;;;;;;;;;;;;;;;;;5009908;28;20097;-64
2023/06/22 15:56:49;;;;;;;;;;;;;;;;;;5011812;28;19971;-63
2023/06/22 15:59:15;;;;;;;;;;;;;;;;;;5013341;28;19917;-63
2023/06/22 16:01:41;;;;;;;;;;;;;;;;;;5008284;28;19935;-62
2023/06/22 16:04:07;;;;;;;;;;;;;;;;;;5001757;28;20405;-63
2023/06/22 16:06:33;;;;;;;;;;;;;;;;;;5008342;28;20386;-62
2023/06/22 16:08:59;;;;;;;;;;;;;;;;;;5009684;28;20021;-61
2023/06/22 16:11:25;;;;;;;;;;;;;;;;;;5013505;28;19925;-62
2023/06/22 16:13:51;;;;;;;;;;;;;;;;;;5011117;28;20000;-62
2023/06/22 16:16:17;;;;;;;;;;;;;;;;;;5012271;28;19986;-62
2023/06/22 16:18:43;;;;;;;;;;;;;;;;;;5016594;28;19914;-61
2023/06/22 16:21:09;;;;;;;;;;;;;;;;;;4993946;28;20396;-61
2023/06/22 16:23:35;;;;;;;;;;;;;;;;;;4990782;28;19957;-61
2023/06/22 16:26:00;;;;;;;;;;;;;;;;;;5011921;28;19949;-61
2023/06/22 16:28:27;;;;;;;;;;;;;;;;;;5010788;28;19913;-61
2023/06/22 16:30:52;;;;;;;;;;;;;;;;;;5009112;28;20008;-61
2023/06/22 16:33:18;;;;;;;;;;;;;;;;;;5009606;28;20000;-61
2023/06/22 16:35:44;;;;;;;;;;;;;;;;;;5011495;28;19913;-62
2023/06/22 16:38:10;;;;;;;;;;;;;;;;;;5004984;28;19945;-61